createdAt,value
2023-09-12T00:01:19.250Z,46.80
2023-09-12T00:03:45.587Z,46.90
2023-09-12T00:06:11.887Z,46.90
2023-09-12T00:08:38.062Z,46.90
2023-09-12T00:11:12.795Z,46.90
2023-09-12T00:13:40.395Z,46.90
2023-09-12T00:16:06.822Z,46.90
2023-09-12T00:18:35.091Z,46.90
2023-09-12T00:21:01.357Z,46.90
2023-09-12T00:23:28.033Z,47.60
2023-09-12T00:25:54.164Z,46.90
2023-09-12T00:28:21.143Z,46.90
2023-09-12T00:30:47.381Z,46.90
2023-09-12T00:33:13.589Z,46.90
2023-09-12T00:35:39.778Z,46.90
2023-09-12T00:38:07.173Z,47.00
2023-09-12T00:40:33.617Z,47.00
2023-09-12T00:43:00.000Z,46.90
2023-09-12T00:45:26.660Z,46.90
2023-09-12T00:47:53.841Z,46.90
2023-09-12T00:50:23.142Z,46.90
2023-09-12T00:52:49.732Z,46.90
2023-09-12T00:55:17.030Z,47.00
2023-09-12T00:57:43.720Z,47.00
2023-09-12T01:00:13.032Z,46.90
2023-09-12T01:02:41.720Z,47.00
2023-09-12T01:05:09.417Z,46.90
2023-09-12T01:07:37.114Z,46.90
2023-09-12T01:10:04.821Z,46.90
2023-09-12T01:12:31.082Z,46.90
2023-09-12T01:14:57.331Z,46.90
2023-09-12T01:17:24.615Z,47.00
2023-09-12T01:19:51.247Z,46.90
2023-09-12T01:22:35.393Z,47.00
2023-09-12T01:25:08.972Z,47.00
2023-09-12T01:27:36.124Z,47.00
2023-09-12T01:30:05.523Z,46.90
2023-09-12T01:32:33.522Z,47.00
2023-09-12T01:35:00.155Z,46.90
2023-09-12T01:37:26.836Z,46.90
2023-09-12T01:39:53.125Z,46.90
2023-09-12T01:42:22.144Z,46.90
2023-09-12T01:44:51.562Z,46.90
2023-09-12T01:47:20.614Z,46.90
2023-09-12T01:49:50.062Z,47.00
2023-09-12T01:52:16.912Z,47.00
2023-09-12T01:54:44.934Z,47.00
2023-09-12T01:57:11.435Z,47.00
2023-09-12T01:59:38.065Z,46.90
2023-09-12T02:02:04.428Z,46.90
2023-09-12T02:04:30.809Z,47.00
2023-09-12T02:06:58.676Z,46.90
2023-09-12T02:09:25.321Z,46.90
2023-09-12T02:11:51.988Z,46.90
2023-09-12T02:14:21.257Z,46.90
2023-09-12T02:16:47.553Z,47.00
2023-09-12T02:19:13.825Z,47.00
2023-09-12T02:21:40.330Z,46.90
2023-09-12T02:24:06.906Z,47.00
2023-09-12T02:26:36.488Z,47.00
2023-09-12T02:29:04.560Z,46.90
2023-09-12T02:31:30.736Z,47.00
2023-09-12T02:33:56.943Z,47.00
2023-09-12T02:36:23.206Z,46.90
2023-09-12T02:38:49.397Z,46.90
2023-09-12T02:41:15.520Z,46.90
2023-09-12T02:43:41.636Z,46.90
2023-09-12T02:46:07.856Z,47.00
2023-09-12T02:48:34.038Z,46.90
2023-09-12T02:51:00.244Z,47.00
2023-09-12T02:53:26.432Z,47.00
2023-09-12T02:55:54.667Z,47.00
2023-09-12T02:58:21.104Z,47.00
2023-09-12T03:00:50.608Z,47.00
2023-09-12T03:03:17.695Z,46.90
2023-09-12T03:05:43.938Z,47.00
2023-09-12T03:08:10.110Z,46.90
2023-09-12T03:10:36.242Z,46.90
2023-09-12T03:13:03.228Z,47.00
2023-09-12T03:15:29.600Z,46.90
2023-09-12T03:17:55.853Z,46.90
2023-09-12T03:20:22.015Z,46.90
2023-09-12T03:22:48.184Z,47.00
2023-09-12T03:25:14.512Z,46.90
2023-09-12T03:27:40.735Z,47.00
2023-09-12T03:30:07.568Z,47.00
2023-09-12T03:32:33.706Z,46.90
2023-09-12T03:34:59.930Z,47.00
2023-09-12T03:37:27.822Z,46.90
2023-09-12T03:39:54.018Z,46.90
2023-09-12T03:42:20.293Z,46.90
2023-09-12T03:44:46.479Z,46.90
2023-09-12T03:47:12.630Z,46.90
2023-09-12T03:49:38.830Z,46.90
2023-09-12T03:52:05.254Z,46.90
2023-09-12T03:54:32.083Z,46.90
2023-09-12T03:56:58.420Z,47.00
2023-09-12T03:59:24.566Z,46.90
2023-09-12T04:01:51.642Z,46.90
2023-09-12T04:04:17.967Z,46.90
2023-09-12T04:06:44.283Z,46.90
2023-09-12T04:09:10.444Z,47.00
2023-09-12T04:11:46.378Z,47.00
2023-09-12T04:14:14.932Z,46.90
2023-09-12T04:16:41.265Z,46.90
2023-09-12T04:19:07.967Z,46.90
2023-09-12T04:21:34.192Z,46.80
2023-09-12T04:24:00.447Z,46.90
2023-09-12T04:26:26.714Z,46.90
2023-09-12T04:28:52.847Z,46.90
2023-09-12T04:31:19.060Z,46.90
2023-09-12T04:33:45.258Z,46.90
2023-09-12T04:36:11.487Z,46.80
2023-09-12T04:38:37.920Z,46.90
2023-09-12T04:41:06.197Z,46.80
2023-09-12T04:43:32.775Z,46.90
2023-09-12T04:45:59.165Z,46.90
2023-09-12T04:48:25.465Z,46.80
2023-09-12T04:50:51.792Z,46.80
2023-09-12T04:53:17.943Z,46.90
2023-09-12T04:55:44.092Z,46.90
2023-09-12T04:58:10.553Z,46.90
2023-09-12T05:00:36.839Z,46.90
2023-09-12T05:03:04.415Z,46.80
2023-09-12T05:05:30.720Z,46.70
2023-09-12T05:07:56.908Z,46.70
2023-09-12T05:10:23.040Z,46.80
2023-09-12T05:12:49.261Z,46.90
2023-09-12T05:15:15.918Z,47.00
2023-09-12T05:17:42.196Z,47.10
2023-09-12T05:20:09.004Z,47.20
2023-09-12T05:22:35.179Z,47.20
2023-09-12T05:25:01.356Z,47.30
2023-09-12T05:27:27.514Z,47.40
2023-09-12T05:29:53.716Z,47.50
2023-09-12T05:32:20.414Z,47.50
2023-09-12T05:34:50.069Z,47.50
2023-09-12T05:37:16.600Z,47.60
2023-09-12T05:39:43.301Z,47.70
2023-09-12T05:42:09.568Z,47.70
2023-09-12T05:44:35.834Z,47.70
2023-09-12T05:47:02.065Z,47.80
2023-09-12T05:49:29.846Z,47.90
2023-09-12T05:51:57.103Z,47.90
2023-09-12T05:54:23.330Z,47.90
2023-09-12T05:56:49.706Z,47.90
2023-09-12T05:59:15.941Z,48.20
2023-09-12T06:01:42.158Z,48.30
2023-09-12T06:04:08.440Z,48.40
2023-09-12T06:06:34.725Z,48.40
2023-09-12T06:09:00.914Z,48.50
2023-09-12T06:11:27.298Z,48.50
2023-09-12T06:13:53.425Z,48.50
2023-09-12T06:16:19.658Z,48.50
2023-09-12T06:18:46.250Z,48.50
2023-09-12T06:21:12.715Z,48.50
2023-09-12T06:23:38.850Z,48.50
2023-09-12T06:26:05.009Z,48.50
2023-09-12T06:28:32.216Z,48.60
2023-09-12T06:30:59.123Z,48.60
2023-09-12T06:33:26.829Z,48.60
2023-09-12T06:35:53.621Z,48.70
2023-09-12T06:38:21.046Z,48.70
2023-09-12T06:40:47.787Z,48.60
2023-09-12T06:43:14.467Z,48.70
2023-09-12T06:45:44.127Z,48.70
2023-09-12T06:48:10.448Z,48.80
2023-09-12T06:50:38.500Z,48.70
2023-09-12T06:53:07.443Z,48.80
2023-09-12T06:55:33.723Z,48.90
2023-09-12T06:57:59.872Z,48.90
2023-09-12T07:00:27.246Z,48.90
2023-09-12T07:02:53.570Z,49.00
2023-09-12T07:05:19.814Z,49.00
2023-09-12T07:07:46.871Z,49.00
2023-09-12T07:10:23.486Z,49.00
2023-09-12T07:12:50.712Z,49.00
2023-09-12T07:15:16.946Z,49.00
2023-09-12T07:17:43.229Z,49.00
2023-09-12T07:20:11.980Z,49.00
2023-09-12T07:22:40.457Z,49.00
2023-09-12T07:25:07.702Z,49.00
2023-09-12T07:27:33.992Z,49.00
2023-09-12T07:30:00.194Z,49.00
2023-09-12T07:32:27.654Z,49.00
2023-09-12T07:34:53.791Z,49.10
2023-09-12T07:37:19.957Z,49.10
2023-09-12T07:39:46.161Z,49.10
2023-09-12T07:42:12.342Z,49.10
2023-09-12T07:44:38.513Z,49.10
2023-09-12T07:47:05.732Z,49.20
2023-09-12T07:49:32.038Z,49.20
2023-09-12T07:51:58.320Z,49.30
2023-09-12T07:54:24.543Z,49.20
2023-09-12T07:56:50.816Z,49.20
2023-09-12T07:59:17.191Z,49.20
2023-09-12T08:01:43.451Z,49.30
2023-09-12T08:04:09.780Z,49.30
2023-09-12T08:06:44.231Z,49.40
2023-09-12T08:09:18.106Z,49.40
2023-09-12T08:11:44.269Z,50.00
2023-09-12T08:14:10.400Z,49.40
2023-09-12T08:16:36.563Z,49.50
2023-09-12T08:19:02.960Z,49.50
2023-09-12T08:21:30.084Z,49.50
2023-09-12T08:23:56.235Z,49.50
2023-09-12T08:26:22.371Z,49.50
2023-09-12T08:28:48.505Z,49.50
2023-09-12T08:31:14.755Z,49.60
2023-09-12T08:33:41.064Z,49.70
2023-09-12T08:36:07.220Z,49.70
2023-09-12T08:38:33.349Z,49.80
2023-09-12T08:41:00.553Z,49.80
2023-09-12T08:43:26.781Z,49.90
2023-09-12T08:45:53.130Z,49.90
2023-09-12T08:48:24.687Z,49.90
2023-09-12T08:50:53.342Z,50.00
2023-09-12T08:53:22.952Z,50.00
2023-09-12T08:55:49.589Z,50.00
2023-09-12T08:58:15.854Z,50.10
2023-09-12T09:00:43.535Z,50.00
2023-09-12T09:03:10.776Z,50.10
2023-09-12T09:05:39.465Z,50.20
2023-09-12T09:08:07.939Z,50.20
2023-09-12T09:10:50.276Z,50.30
2023-09-12T09:13:18.387Z,50.20
2023-09-12T09:15:44.605Z,50.30
2023-09-12T09:18:12.674Z,50.40
2023-09-12T09:20:40.403Z,50.40
2023-09-12T09:23:11.120Z,50.40
2023-09-12T09:25:41.697Z,50.50
2023-09-12T09:28:18.632Z,50.50
2023-09-12T09:30:47.074Z,50.50
2023-09-12T09:33:13.857Z,50.50
2023-09-12T09:35:45.780Z,50.50
2023-09-12T09:38:17.125Z,50.50
2023-09-12T09:40:44.163Z,50.60
2023-09-12T09:43:10.340Z,50.50
2023-09-12T09:45:45.351Z,50.60
2023-09-12T09:48:22.667Z,50.60
2023-09-12T09:50:49.199Z,50.70
2023-09-12T09:53:15.529Z,50.70
2023-09-12T09:55:42.779Z,50.70
2023-09-12T09:58:09.613Z,50.70
2023-09-12T10:00:37.865Z,50.60
2023-09-12T10:03:08.651Z,50.70
2023-09-12T10:05:38.123Z,50.70
2023-09-12T10:08:09.228Z,50.80
2023-09-12T10:10:36.326Z,50.80
2023-09-12T10:13:05.046Z,50.80
2023-09-12T10:15:32.498Z,50.80
2023-09-12T10:18:01.074Z,50.70
2023-09-12T10:20:40.040Z,50.70
2023-09-12T10:23:16.434Z,50.80
2023-09-12T10:25:44.062Z,50.80
2023-09-12T10:28:11.313Z,50.90
2023-09-12T10:30:38.338Z,50.90
2023-09-12T10:33:06.096Z,51.50
2023-09-12T10:35:33.499Z,50.80
2023-09-12T10:38:04.404Z,50.90
2023-09-12T10:40:32.758Z,50.90
2023-09-12T10:43:00.938Z,50.70
2023-09-12T10:45:28.449Z,50.70
2023-09-12T10:47:54.774Z,50.60
2023-09-12T10:50:21.252Z,50.60
2023-09-12T10:52:48.654Z,50.70
2023-09-12T10:55:18.924Z,50.70
2023-09-12T10:58:14.590Z,50.70
2023-09-12T11:00:41.197Z,50.70
2023-09-12T11:03:27.804Z,50.70
2023-09-12T11:05:55.824Z,50.80
2023-09-12T11:08:22.474Z,50.80
2023-09-12T11:11:17.204Z,50.90
2023-09-12T11:13:44.286Z,50.90
2023-09-12T11:16:15.222Z,50.90
2023-09-12T11:19:19.951Z,50.90
2023-09-12T11:21:48.567Z,50.90
2023-09-12T11:24:15.909Z,51.10
2023-09-12T11:27:08.488Z,51.10
2023-09-12T11:29:39.414Z,51.10
2023-09-12T11:32:06.770Z,51.10
2023-09-12T11:34:42.144Z,51.10
2023-09-12T11:37:09.123Z,51.10
2023-09-12T11:39:40.049Z,51.10
2023-09-12T11:42:11.313Z,51.10
2023-09-12T11:44:38.623Z,51.10
2023-09-12T11:47:06.872Z,51.10
2023-09-12T11:49:40.985Z,51.10
2023-09-12T11:52:12.706Z,51.10
2023-09-12T11:54:41.572Z,51.10
2023-09-12T11:57:09.728Z,51.10
2023-09-12T11:59:40.460Z,51.10
2023-09-12T12:02:09.002Z,51.10
2023-09-12T12:04:35.956Z,51.10
2023-09-12T12:07:04.579Z,51.20
2023-09-12T12:09:31.733Z,51.30
2023-09-12T12:12:11.784Z,51.30
2023-09-12T12:14:40.205Z,51.40
2023-09-12T12:17:11.425Z,51.40
2023-09-12T12:19:39.018Z,51.40
2023-09-12T12:22:06.674Z,51.50
2023-09-12T12:24:40.585Z,51.50
2023-09-12T12:27:08.139Z,51.50
2023-09-12T12:29:35.786Z,51.50
2023-09-12T12:32:02.792Z,51.50
2023-09-12T12:35:15.860Z,51.50
2023-09-12T12:37:16.067Z,51.50
2023-09-12T12:39:45.147Z,51.50
2023-09-12T12:42:11.428Z,51.60
2023-09-12T12:44:41.276Z,51.60
2023-09-12T12:47:09.169Z,51.60
2023-09-12T12:49:39.884Z,51.60
2023-09-12T12:52:06.394Z,51.70
2023-09-12T12:54:33.972Z,51.80
2023-09-12T12:57:01.987Z,51.80
2023-09-12T12:59:30.189Z,51.70
2023-09-12T13:01:56.652Z,51.80
2023-09-12T13:04:24.901Z,51.80
2023-09-12T13:06:51.173Z,51.70
2023-09-12T13:09:17.394Z,51.80
2023-09-12T13:11:43.831Z,51.80
2023-09-12T13:14:11.509Z,51.80
2023-09-12T13:16:41.027Z,51.90
2023-09-12T13:19:07.269Z,51.90
2023-09-12T13:21:33.564Z,51.90
2023-09-12T13:24:02.045Z,51.90
2023-09-12T13:26:29.672Z,51.90
2023-09-12T13:28:55.815Z,51.90
2023-09-12T13:31:22.090Z,52.00
2023-09-12T13:33:48.271Z,52.00
2023-09-12T13:36:14.984Z,51.90
2023-09-12T13:38:41.261Z,51.90
2023-09-12T13:41:07.555Z,52.00
2023-09-12T13:43:33.690Z,52.00
2023-09-12T13:45:59.930Z,52.00
2023-09-12T13:48:27.120Z,52.00
2023-09-12T13:50:53.305Z,52.00
2023-09-12T13:53:19.488Z,52.00
2023-09-12T13:56:05.245Z,52.10
2023-09-12T13:58:42.747Z,52.10
2023-09-12T14:01:12.218Z,52.10
2023-09-12T14:03:39.992Z,52.20
2023-09-12T14:06:06.654Z,52.00
2023-09-12T14:08:33.338Z,52.10
2023-09-12T14:11:00.064Z,52.10
2023-09-12T14:13:26.383Z,52.10
2023-09-12T14:15:53.067Z,52.10
2023-09-12T14:18:21.812Z,52.10
2023-09-12T14:20:48.880Z,52.10
2023-09-12T14:23:16.897Z,52.10
2023-09-12T14:25:43.635Z,52.10
2023-09-12T14:28:11.766Z,52.10
2023-09-12T14:30:38.670Z,52.20
2023-09-12T14:33:05.034Z,52.20
2023-09-12T14:35:31.208Z,52.20
2023-09-12T14:37:58.935Z,52.20
2023-09-12T14:40:25.285Z,52.20
2023-09-12T14:42:51.617Z,52.20
2023-09-12T14:45:17.996Z,52.30
2023-09-12T14:47:44.245Z,52.40
2023-09-12T14:50:10.460Z,52.40
2023-09-12T14:52:38.562Z,52.50
2023-09-12T14:55:08.115Z,52.50
2023-09-12T14:57:34.505Z,52.40
2023-09-12T15:00:01.576Z,52.50
2023-09-12T15:02:33.764Z,52.50
2023-09-12T15:05:04.137Z,52.50
2023-09-12T15:07:31.114Z,52.70
2023-09-12T15:09:57.921Z,52.80
2023-09-12T15:12:24.252Z,52.80
2023-09-12T15:14:51.555Z,52.90
2023-09-12T15:17:18.651Z,53.00
2023-09-12T15:19:44.802Z,53.00
2023-09-12T15:22:10.935Z,53.00
2023-09-12T15:24:37.070Z,53.10
2023-09-12T15:27:03.582Z,53.10
2023-09-12T15:29:29.796Z,53.10
2023-09-12T15:31:56.175Z,53.20
2023-09-12T15:34:22.428Z,53.10
2023-09-12T15:36:49.016Z,53.20
2023-09-12T15:39:15.911Z,53.20
2023-09-12T15:41:42.062Z,53.10
2023-09-12T15:44:15.563Z,53.10
2023-09-12T15:46:42.865Z,53.20
2023-09-12T15:49:09.351Z,53.20
2023-09-12T15:51:35.614Z,53.10
2023-09-12T15:54:01.885Z,53.10
2023-09-12T15:56:28.117Z,53.10
2023-09-12T15:58:55.978Z,53.00
2023-09-12T16:01:22.772Z,52.90
2023-09-12T16:03:49.226Z,52.90
2023-09-12T16:06:16.273Z,52.80
2023-09-12T16:08:42.406Z,52.70
2023-09-12T16:11:08.556Z,52.60
2023-09-12T16:13:34.693Z,52.50
2023-09-12T16:16:00.945Z,52.50
2023-09-12T16:18:27.210Z,52.40
2023-09-12T16:20:53.583Z,52.30
2023-09-12T16:23:20.576Z,52.00
2023-09-12T16:25:51.396Z,51.90
2023-09-12T16:28:17.932Z,51.80
2023-09-12T16:30:44.765Z,51.70
2023-09-12T16:33:11.242Z,51.70
2023-09-12T16:35:37.587Z,51.60
2023-09-12T16:38:03.958Z,51.50
2023-09-12T16:40:31.993Z,51.50
2023-09-12T16:42:58.406Z,51.40
2023-09-12T16:45:24.733Z,51.40
2023-09-12T16:47:51.054Z,51.30
2023-09-12T16:50:19.230Z,51.30
2023-09-12T16:52:45.341Z,51.20
2023-09-12T16:55:13.495Z,51.20
2023-09-12T16:57:40.807Z,51.20
2023-09-12T17:00:08.905Z,51.20
2023-09-12T17:02:35.786Z,51.80
2023-09-12T17:05:04.419Z,51.20
2023-09-12T17:07:33.464Z,51.20
2023-09-12T17:09:59.780Z,51.20
2023-09-12T17:12:26.335Z,51.00
2023-09-12T17:14:52.509Z,51.10
2023-09-12T17:17:18.715Z,51.00
2023-09-12T17:19:44.905Z,50.90
2023-09-12T17:22:11.676Z,50.90
2023-09-12T17:24:38.562Z,50.80
2023-09-12T17:27:05.023Z,50.80
2023-09-12T17:29:31.583Z,50.80
2023-09-12T17:31:57.959Z,50.80
2023-09-12T17:34:43.940Z,50.80
2023-09-12T17:37:10.674Z,50.70
2023-09-12T17:39:37.414Z,50.70
2023-09-12T17:42:06.974Z,50.70
2023-09-12T17:44:33.115Z,50.60
2023-09-12T17:46:59.372Z,50.60
2023-09-12T17:49:26.049Z,50.60
2023-09-12T17:51:52.330Z,50.60
2023-09-12T17:54:18.528Z,50.50
2023-09-12T17:56:44.690Z,50.50
2023-09-12T17:59:10.836Z,50.60
2023-09-12T18:01:37.086Z,50.60
2023-09-12T18:04:04.108Z,50.50
2023-09-12T18:06:32.187Z,50.50
2023-09-12T18:09:00.710Z,50.50
2023-09-12T18:11:26.950Z,50.50
2023-09-12T18:13:53.620Z,50.50
2023-09-12T18:16:19.869Z,50.50
2023-09-12T18:18:46.129Z,50.50
2023-09-12T18:21:13.496Z,50.50
2023-09-12T18:23:43.651Z,50.40
2023-09-12T18:26:13.346Z,50.40
2023-09-12T18:28:44.612Z,50.40
2023-09-12T18:31:12.504Z,50.40
2023-09-12T18:33:39.027Z,50.40
2023-09-12T18:36:06.081Z,50.40
2023-09-12T18:38:32.416Z,50.40
2023-09-12T18:40:58.613Z,50.40
2023-09-12T18:43:24.841Z,50.30
2023-09-12T18:45:51.124Z,50.30
2023-09-12T18:48:17.777Z,50.30
2023-09-12T18:50:46.860Z,50.30
2023-09-12T18:53:16.269Z,50.30
2023-09-12T18:55:43.018Z,50.30
2023-09-12T18:58:11.290Z,50.30
2023-09-12T19:00:46.824Z,50.20
2023-09-12T19:03:17.909Z,50.20
2023-09-12T19:05:45.043Z,50.20
2023-09-12T19:08:11.566Z,50.30
2023-09-12T19:10:38.360Z,50.20
2023-09-12T19:13:09.380Z,50.20
2023-09-12T19:15:38.920Z,50.20
2023-09-12T19:18:07.325Z,50.20
2023-09-12T19:20:34.752Z,50.20
2023-09-12T19:23:01.777Z,50.20
2023-09-12T19:25:28.366Z,50.20
2023-09-12T19:27:54.597Z,50.20
2023-09-12T19:30:21.025Z,50.20
2023-09-12T19:32:47.605Z,50.20
2023-09-12T19:35:14.078Z,50.10
2023-09-12T19:37:44.509Z,50.20
2023-09-12T19:40:15.021Z,50.20
2023-09-12T19:42:41.328Z,50.20
2023-09-12T19:45:08.017Z,50.10
2023-09-12T19:47:46.323Z,50.10
2023-09-12T19:50:20.790Z,50.10
2023-09-12T19:52:46.944Z,50.10
2023-09-12T19:55:13.218Z,50.10
2023-09-12T19:57:45.609Z,50.10
2023-09-12T20:00:12.910Z,50.20
2023-09-12T20:02:39.085Z,50.10
2023-09-12T20:05:05.579Z,50.10
2023-09-12T20:07:32.043Z,50.10
2023-09-12T20:09:58.266Z,50.10
2023-09-12T20:12:25.096Z,50.00
2023-09-12T20:14:51.831Z,50.10
2023-09-12T20:17:18.116Z,50.10
2023-09-12T20:19:44.346Z,50.10
2023-09-12T20:22:11.330Z,50.10
2023-09-12T20:24:37.570Z,50.10
2023-09-12T20:27:04.932Z,50.10
2023-09-12T20:29:31.059Z,50.10
2023-09-12T20:31:57.387Z,50.10
2023-09-12T20:34:23.566Z,50.10
2023-09-12T20:36:51.235Z,50.00
2023-09-12T20:39:26.042Z,50.00
2023-09-12T20:41:53.664Z,50.00
2023-09-12T20:44:20.083Z,50.00
2023-09-12T20:46:46.387Z,50.00
2023-09-12T20:49:12.650Z,50.00
2023-09-12T20:51:40.869Z,50.00
2023-09-12T20:54:09.007Z,50.00
2023-09-12T20:56:41.783Z,50.00
2023-09-12T20:59:07.935Z,50.00
2023-09-12T21:01:35.181Z,50.00
2023-09-12T21:04:02.177Z,50.00
2023-09-12T21:06:28.704Z,50.00
2023-09-12T21:08:55.019Z,50.00
2023-09-12T21:11:21.714Z,50.00
2023-09-12T21:13:48.409Z,50.00
2023-09-12T21:16:14.818Z,50.00
2023-09-12T21:18:41.912Z,50.00
2023-09-12T21:21:08.058Z,50.00
2023-09-12T21:23:34.180Z,50.00
2023-09-12T21:26:00.362Z,50.00
2023-09-12T21:28:26.656Z,50.00
2023-09-12T21:30:53.133Z,50.00
2023-09-12T21:33:19.770Z,50.00
2023-09-12T21:35:46.038Z,50.00
2023-09-12T21:38:12.174Z,50.00
2023-09-12T21:40:38.347Z,50.00
2023-09-12T21:43:05.308Z,50.00
2023-09-12T21:45:32.106Z,50.00
2023-09-12T21:47:58.314Z,50.00
2023-09-12T21:50:24.533Z,50.00
2023-09-12T21:52:50.669Z,50.00
2023-09-12T21:55:16.879Z,50.00
2023-09-12T21:57:43.359Z,50.00
2023-09-12T22:00:30.240Z,50.00
2023-09-12T22:02:56.674Z,50.00
2023-09-12T22:05:24.604Z,50.00
2023-09-12T22:07:51.541Z,50.00
2023-09-12T22:10:18.260Z,50.00
2023-09-12T22:12:45.125Z,49.90
2023-09-12T22:15:11.314Z,49.90
2023-09-12T22:17:37.909Z,50.00
2023-09-12T22:20:06.734Z,50.00
2023-09-12T22:22:33.446Z,49.90
2023-09-12T22:24:59.783Z,50.00
2023-09-12T22:27:25.919Z,49.90
2023-09-12T22:29:54.960Z,49.90
2023-09-12T22:32:21.100Z,49.90
2023-09-12T22:34:47.260Z,49.90
2023-09-12T22:37:13.456Z,49.90
2023-09-12T22:39:39.668Z,49.90
2023-09-12T22:42:05.999Z,49.90
2023-09-12T22:44:32.227Z,49.90
2023-09-12T22:46:58.452Z,49.90
2023-09-12T22:49:24.585Z,49.90
2023-09-12T22:51:50.757Z,49.80
2023-09-12T22:54:16.896Z,49.90
2023-09-12T22:56:43.026Z,49.90
2023-09-12T22:59:09.155Z,49.80
2023-09-12T23:01:35.413Z,49.80
2023-09-12T23:04:01.728Z,49.90
2023-09-12T23:06:27.980Z,49.90
2023-09-12T23:08:54.114Z,49.90
2023-09-12T23:11:20.621Z,49.90
2023-09-12T23:13:46.940Z,49.90
2023-09-12T23:16:13.317Z,49.90
2023-09-12T23:18:39.565Z,49.80
2023-09-12T23:21:05.809Z,49.90
2023-09-12T23:23:32.046Z,49.90
2023-09-12T23:25:58.246Z,49.90
2023-09-12T23:28:25.465Z,49.80
2023-09-12T23:30:51.714Z,49.90
2023-09-12T23:33:17.968Z,49.90
2023-09-12T23:35:44.711Z,49.90
2023-09-12T23:38:10.992Z,49.90
2023-09-12T23:40:37.170Z,49.90
2023-09-12T23:43:03.489Z,49.90
2023-09-12T23:45:29.687Z,49.90
2023-09-12T23:47:55.898Z,49.90
2023-09-12T23:50:22.141Z,49.80
2023-09-12T23:52:48.284Z,49.80
2023-09-12T23:55:14.559Z,49.80
2023-09-12T23:57:40.782Z,49.80
